Time;durP1;ratioP1;P1;durP2;ratioP2;P2;SDS_P1;SDS_P2;PMS_P1;PMS_P2;Temp;Humidity;BMP_temperature;BMP_pressure;BME280_temperature;BME280_humidity;BME280_pressure;Samples;Min_cycle;Max_cycle;Signal;HPM_P1;HPM_P2
2024/04/07 00:01:20;;;;;;;92.78;86.68;;;;;;;;;;6277453;22;20015;-93
2024/04/07 00:03:46;;;;;;;46.00;42.53;;;;;;;;;;6252081;22;20015;-92
2024/04/07 00:06:21;;;;;;;71.53;66.20;;;;;;;;;;6277162;22;20003;-93
2024/04/07 00:11:51;;;;;;;134.00;125.28;;;;;;;;;;6306201;22;20137;-93
2024/04/07 00:14:17;;;;;;;120.10;111.13;;;;;;;;;;6302631;22;20012;-93
2024/04/07 00:16:44;;;;;;;60.10;55.38;;;;;;;;;;6286152;22;20015;-93
2024/04/07 00:19:10;;;;;;;129.40;121.13;;;;;;;;;;6282967;22;19999;-93
2024/04/07 00:21:36;;;;;;;75.25;69.80;;;;;;;;;;6282960;22;20003;-93
2024/04/07 00:24:03;;;;;;;105.95;99.00;;;;;;;;;;6282638;22;20408;-93
2024/04/07 00:26:29;;;;;;;133.75;124.75;;;;;;;;;;6282150;22;20007;-94
2024/04/07 00:28:55;;;;;;;80.50;74.57;;;;;;;;;;6284809;22;20086;-92
2024/04/07 00:31:21;;;;;;;100.65;93.72;;;;;;;;;;6287776;22;20037;-93
2024/04/07 00:33:48;;;;;;;93.30;86.20;;;;;;;;;;6283151;22;20008;-93
2024/04/07 00:36:14;;;;;;;62.70;57.72;;;;;;;;;;6283407;22;20079;-92
2024/04/07 00:38:40;;;;;;;102.60;95.85;;;;;;;;;;6283352;22;20023;-92
2024/04/07 00:41:08;;;;;;;127.35;118.55;;;;;;;;;;6283815;22;20023;-92
2024/04/07 00:43:36;;;;;;;167.23;156.65;;;;;;;;;;6283133;22;20430;-93
2024/04/07 00:46:02;;;;;;;170.30;159.73;;;;;;;;;;6287510;22;20019;-91
2024/04/07 00:48:29;;;;;;;137.95;126.45;;;;;;;;;;6284353;22;20003;-92
2024/04/07 00:50:56;;;;;;;155.50;144.07;;;;;;;;;;6282283;22;20057;-93
2024/04/07 00:53:25;;;;;;;155.57;145.05;;;;;;;;;;6256881;22;20007;-94
2024/04/07 00:55:51;;;;;;;121.60;112.90;;;;;;;;;;6281768;22;20033;-93
2024/04/07 00:58:21;;;;;;;149.90;140.05;;;;;;;;;;6282241;22;20034;-94
2024/04/07 01:00:47;;;;;;;123.88;116.05;;;;;;;;;;6282258;22;20033;-92
2024/04/07 01:03:15;;;;;;;139.13;130.75;;;;;;;;;;6282101;22;20023;-93
2024/04/07 01:05:45;;;;;;;125.30;117.25;;;;;;;;;;6281762;22;20003;-93
2024/04/07 01:08:12;;;;;;;132.63;124.50;;;;;;;;;;6282929;22;20035;-93
2024/04/07 01:10:38;;;;;;;151.93;142.82;;;;;;;;;;6281580;22;20003;-94
2024/04/07 01:13:06;;;;;;;140.63;132.45;;;;;;;;;;6282353;22;20014;-93
2024/04/07 01:15:36;;;;;;;139.68;131.60;;;;;;;;;;6281893;22;20015;-93
2024/04/07 01:18:02;;;;;;;153.43;143.93;;;;;;;;;;6281735;22;20050;-93
2024/04/07 01:20:29;;;;;;;97.30;91.13;;;;;;;;;;6282403;22;20004;-93
2024/04/07 01:22:55;;;;;;;123.15;114.93;;;;;;;;;;6286251;22;20018;-91
2024/04/07 01:25:22;;;;;;;114.88;107.95;;;;;;;;;;6285357;22;20064;-93
2024/04/07 01:27:59;;;;;;;112.90;105.55;;;;;;;;;;6282196;22;20106;-92
2024/04/07 01:30:26;;;;;;;61.03;56.72;;;;;;;;;;6286049;22;20429;-92
2024/04/07 01:32:52;;;;;;;94.75;88.85;;;;;;;;;;6283965;22;20129;-92
2024/04/07 01:35:19;;;;;;;148.95;140.30;;;;;;;;;;6281599;22;20325;-92
2024/04/07 01:37:45;;;;;;;103.53;97.25;;;;;;;;;;6281385;22;20018;-92
2024/04/07 01:40:12;;;;;;;99.30;93.13;;;;;;;;;;6281642;22;20069;-93
2024/04/07 01:42:39;;;;;;;148.02;139.52;;;;;;;;;;6281454;22;20061;-93
2024/04/07 01:45:06;;;;;;;132.20;124.05;;;;;;;;;;6281846;22;20029;-93
2024/04/07 01:47:32;;;;;;;64.10;59.78;;;;;;;;;;6281954;22;20014;-93
2024/04/07 01:49:59;;;;;;;139.45;131.15;;;;;;;;;;6311743;22;20451;-94
2024/04/07 01:52:25;;;;;;;73.20;68.18;;;;;;;;;;6293434;22;19987;-93
2024/04/07 01:54:53;;;;;;;65.30;61.03;;;;;;;;;;6309565;22;20011;-93
2024/04/07 01:57:22;;;;;;;50.42;46.78;;;;;;;;;;6309306;22;20019;-92
2024/04/07 01:59:49;;;;;;;58.03;54.05;;;;;;;;;;6291984;22;20009;-92
2024/04/07 02:02:16;;;;;;;52.88;49.15;;;;;;;;;;6286528;22;20004;-93
2024/04/07 02:04:43;;;;;;;52.97;49.28;;;;;;;;;;6281263;22;20034;-92
2024/04/07 02:07:09;;;;;;;74.00;69.25;;;;;;;;;;6281756;22;20007;-93
2024/04/07 02:09:35;;;;;;;41.90;38.80;;;;;;;;;;6283103;22;20003;-93
2024/04/07 02:12:02;;;;;;;45.80;42.63;;;;;;;;;;6277880;22;20039;-93
2024/04/07 02:14:28;;;;;;;60.42;56.45;;;;;;;;;;6278348;22;20087;-95
2024/04/07 02:16:55;;;;;;;63.75;59.50;;;;;;;;;;6282627;22;20016;-92
2024/04/07 02:19:22;;;;;;;21.25;19.45;;;;;;;;;;6280616;22;20014;-92
2024/04/07 02:21:48;;;;;;;18.25;16.63;;;;;;;;;;6277865;22;20008;-93
2024/04/07 02:24:14;;;;;;;103.57;97.15;;;;;;;;;;6278178;22;20054;-92
2024/04/07 02:26:40;;;;;;;31.30;28.70;;;;;;;;;;6277855;22;20003;-93
2024/04/07 02:29:06;;;;;;;24.05;21.75;;;;;;;;;;6278352;22;20333;-93
2024/04/07 02:31:33;;;;;;;18.00;15.52;;;;;;;;;;6278779;22;20004;-92
2024/04/07 02:33:59;;;;;;;17.10;15.35;;;;;;;;;;6278283;22;20053;-91
2024/04/07 02:36:25;;;;;;;27.80;25.05;;;;;;;;;;6277942;22;20429;-92
2024/04/07 02:38:52;;;;;;;18.63;15.23;;;;;;;;;;6278438;22;20117;-92
2024/04/07 02:41:18;;;;;;;22.67;20.60;;;;;;;;;;6277909;22;20007;-93
2024/04/07 02:43:45;;;;;;;16.38;12.15;;;;;;;;;;6278344;22;20000;-92
2024/04/07 02:48:57;;;;;;;24.63;14.57;;;;;;;;;;6279927;22;20014;-90
2024/04/07 02:51:23;;;;;;;20.92;11.32;;;;;;;;;;6279137;22;20000;-94
2024/04/07 02:53:53;;;;;;;15.32;11.70;;;;;;;;;;6278912;22;20003;-94
2024/04/07 02:56:20;;;;;;;17.23;14.00;;;;;;;;;;6279331;22;20087;-94
2024/04/07 02:58:46;;;;;;;15.60;11.68;;;;;;;;;;6278057;22;20450;-92
2024/04/07 03:01:12;;;;;;;13.68;10.32;;;;;;;;;;6278344;22;20087;-92
2024/04/07 03:03:48;;;;;;;13.98;10.15;;;;;;;;;;6277822;22;20000;-92
2024/04/07 03:06:14;;;;;;;20.13;10.30;;;;;;;;;;6278149;22;20022;-92
2024/04/07 03:08:40;;;;;;;18.35;13.80;;;;;;;;;;6281399;22;20007;-91
2024/04/07 03:11:07;;;;;;;18.08;13.02;;;;;;;;;;6284558;22;20019;-90
2024/04/07 03:13:35;;;;;;;22.45;14.27;;;;;;;;;;6278255;22;20018;-92
2024/04/07 03:16:01;;;;;;;28.02;17.30;;;;;;;;;;6277633;22;20425;-91
2024/04/07 03:18:28;;;;;;;25.48;15.60;;;;;;;;;;6277591;22;20008;-92
2024/04/07 03:20:54;;;;;;;25.35;14.57;;;;;;;;;;6277333;22;20003;-94
2024/04/07 03:23:20;;;;;;;13.57;9.57;;;;;;;;;;6277967;22;20004;-91
2024/04/07 03:25:46;;;;;;;9.80;8.35;;;;;;;;;;6303400;22;20015;-92
2024/04/07 03:28:13;;;;;;;15.57;10.23;;;;;;;;;;6303198;22;20101;-95
2024/04/07 03:30:40;;;;;;;12.27;8.32;;;;;;;;;;6277699;22;20076;-92
2024/04/07 03:33:06;;;;;;;13.07;9.82;;;;;;;;;;6317602;22;20011;-90
2024/04/07 03:35:33;;;;;;;12.85;8.02;;;;;;;;;;6318660;22;20007;-92
2024/04/07 03:37:59;;;;;;;15.50;10.60;;;;;;;;;;6304651;22;20168;-92
2024/04/07 03:40:26;;;;;;;13.98;10.77;;;;;;;;;;6277682;22;20192;-93
2024/04/07 03:42:52;;;;;;;16.73;11.63;;;;;;;;;;6277362;22;20019;-92
2024/04/07 03:45:18;;;;;;;13.43;10.00;;;;;;;;;;6277223;22;20000;-93
2024/04/07 03:47:45;;;;;;;13.55;10.35;;;;;;;;;;6277700;22;20105;-92
2024/04/07 03:50:12;;;;;;;13.95;10.23;;;;;;;;;;6278342;22;20497;-93
2024/04/07 03:52:39;;;;;;;16.48;10.30;;;;;;;;;;6277854;22;20008;-92
2024/04/07 03:55:06;;;;;;;14.40;11.43;;;;;;;;;;6277868;22;20360;-92
2024/04/07 03:57:32;;;;;;;18.63;13.80;;;;;;;;;;6277601;22;20326;-93
2024/04/07 03:59:59;;;;;;;17.38;12.25;;;;;;;;;;6277626;22;20022;-92
2024/04/07 04:02:26;;;;;;;18.15;13.00;;;;;;;;;;6278157;22;20004;-91
2024/04/07 04:04:59;;;;;;;13.50;10.55;;;;;;;;;;6282037;22;20039;-94
2024/04/07 04:07:28;;;;;;;18.73;13.98;;;;;;;;;;6279157;22;20004;-93
2024/04/07 04:09:55;;;;;;;23.33;16.65;;;;;;;;;;6278593;22;20417;-92
2024/04/07 04:12:22;;;;;;;18.08;13.23;;;;;;;;;;6277375;22;20121;-92
2024/04/07 04:14:48;;;;;;;19.92;14.65;;;;;;;;;;6277736;22;20018;-92
2024/04/07 04:17:15;;;;;;;17.08;13.63;;;;;;;;;;6277865;22;20020;-92
2024/04/07 04:19:41;;;;;;;15.20;13.05;;;;;;;;;;6277722;22;20023;-93
2024/04/07 04:22:08;;;;;;;14.27;11.65;;;;;;;;;;6278106;22;20422;-92
2024/04/07 04:24:35;;;;;;;14.93;11.77;;;;;;;;;;6277444;22;20421;-91
2024/04/07 04:27:01;;;;;;;16.38;12.75;;;;;;;;;;6276707;22;20003;-92
2024/04/07 04:29:27;;;;;;;19.42;16.55;;;;;;;;;;6276953;22;20003;-93
2024/04/07 04:31:53;;;;;;;30.73;25.80;;;;;;;;;;6276858;22;20024;-94
2024/04/07 04:34:19;;;;;;;31.58;29.00;;;;;;;;;;6277090;22;20011;-92
2024/04/07 04:36:48;;;;;;;28.65;26.30;;;;;;;;;;6276874;22;20011;-91
2024/04/07 04:39:14;;;;;;;19.73;17.05;;;;;;;;;;6277181;22;20083;-94
2024/04/07 04:41:42;;;;;;;14.98;13.20;;;;;;;;;;6277538;22;20134;-91
2024/04/07 04:44:08;;;;;;;17.20;15.00;;;;;;;;;;6278160;22;20000;-94
2024/04/07 04:46:34;;;;;;;29.27;26.40;;;;;;;;;;6277210;22;20010;-95
2024/04/07 04:49:00;;;;;;;37.53;34.53;;;;;;;;;;6277738;22;20023;-91
2024/04/07 04:51:26;;;;;;;34.25;31.40;;;;;;;;;;6281671;22;20003;-91
2024/04/07 04:53:52;;;;;;;34.70;31.73;;;;;;;;;;6304374;22;20019;-91
2024/04/07 04:56:18;;;;;;;37.47;34.08;;;;;;;;;;6299388;22;20026;-89
2024/04/07 04:58:44;;;;;;;41.30;36.95;;;;;;;;;;6290046;22;19996;-92
2024/04/07 05:01:11;;;;;;;36.40;33.45;;;;;;;;;;6279107;22;20008;-92
2024/04/07 05:03:38;;;;;;;36.30;33.15;;;;;;;;;;6278133;22;20000;-93
2024/04/07 05:06:08;;;;;;;27.80;25.25;;;;;;;;;;6277947;22;20011;-93
2024/04/07 05:08:35;;;;;;;35.35;29.20;;;;;;;;;;6277942;22;19999;-93
2024/04/07 05:11:05;;;;;;;34.88;27.83;;;;;;;;;;6280481;22;20169;-90
2024/04/07 05:13:31;;;;;;;29.85;24.70;;;;;;;;;;6293408;22;20004;-92
2024/04/07 05:15:57;;;;;;;32.50;24.20;;;;;;;;;;6289256;22;20073;-92
2024/04/07 05:18:24;;;;;;;17.35;15.95;;;;;;;;;;6290073;22;20027;-92
2024/04/07 05:20:50;;;;;;;23.70;19.05;;;;;;;;;;6277341;22;20102;-91
2024/04/07 05:23:16;;;;;;;14.80;13.45;;;;;;;;;;6277615;22;20012;-91
2024/04/07 05:25:43;;;;;;;20.23;16.85;;;;;;;;;;6277400;22;20039;-90
2024/04/07 05:28:11;;;;;;;25.17;22.70;;;;;;;;;;6276801;22;20008;-90
2024/04/07 05:30:37;;;;;;;26.50;23.67;;;;;;;;;;6276965;22;20077;-93
2024/04/07 05:33:03;;;;;;;29.27;26.50;;;;;;;;;;6277665;22;20011;-92
2024/04/07 05:35:30;;;;;;;31.13;27.92;;;;;;;;;;6277028;22;20011;-92
2024/04/07 05:37:56;;;;;;;31.75;28.75;;;;;;;;;;6277708;22;20007;-94
2024/04/07 05:40:22;;;;;;;37.38;34.47;;;;;;;;;;6278898;22;20004;-94
2024/04/07 05:42:49;;;;;;;37.30;34.35;;;;;;;;;;6287137;22;20011;-93
2024/04/07 05:45:35;;;;;;;48.30;44.63;;;;;;;;;;6286575;22;20010;-94
2024/04/07 05:48:01;;;;;;;53.17;49.58;;;;;;;;;;6281600;22;20000;-92
2024/04/07 05:50:28;;;;;;;59.83;55.90;;;;;;;;;;6280237;22;20007;-93
2024/04/07 05:52:54;;;;;;;49.42;45.50;;;;;;;;;;6280601;22;20045;-93
2024/04/07 05:55:29;;;;;;;49.30;45.75;;;;;;;;;;6300742;22;20011;-92
2024/04/07 05:58:01;;;;;;;58.80;54.47;;;;;;;;;;6275626;22;20015;-91
2024/04/07 06:00:29;;;;;;;64.27;60.13;;;;;;;;;;6296309;22;20027;-93
2024/04/07 06:09:18;;;;;;;33.58;31.17;;;;;;;;;;6291990;22;20113;-94
2024/04/07 06:12:13;;;;;;;29.20;27.13;;;;;;;;;;6259240;22;20003;-93
2024/04/07 06:15:24;;;;;;;;;;;;;;;;;;;;;
2024/04/07 06:17:51;;;;;;;26.52;24.67;;;;;;;;;;6203997;23;20020;-93
2024/04/07 06:20:18;;;;;;;25.25;23.65;;;;;;;;;;6257801;22;20015;-93
2024/04/07 06:22:44;;;;;;;26.55;24.65;;;;;;;;;;6254610;22;20011;-94
2024/04/07 06:25:46;;;;;;;23.15;21.38;;;;;;;;;;6280467;22;20015;-93
2024/04/07 06:28:26;;;;;;;20.45;18.95;;;;;;;;;;6228885;23;20093;-94
2024/04/07 06:30:53;;;;;;;25.77;24.17;;;;;;;;;;6194264;23;20091;-94
2024/04/07 06:33:21;;;;;;;25.42;23.67;;;;;;;;;;6192753;23;20441;-95
2024/04/07 06:35:47;;;;;;;29.63;27.65;;;;;;;;;;6191782;23;20008;-95
2024/04/07 06:38:13;;;;;;;28.42;26.70;;;;;;;;;;6192003;23;20005;-95
2024/04/07 06:40:40;;;;;;;25.35;23.50;;;;;;;;;;6194887;23;20034;-95
2024/04/07 06:43:06;;;;;;;27.58;25.50;;;;;;;;;;6195267;23;20004;-95
2024/04/07 06:45:32;;;;;;;29.65;27.75;;;;;;;;;;6195081;23;20016;-92
2024/04/07 06:47:58;;;;;;;20.92;19.40;;;;;;;;;;6195428;23;20058;-95
2024/04/07 06:50:24;;;;;;;22.92;21.42;;;;;;;;;;6205714;23;19984;-94
2024/04/07 06:52:53;;;;;;;20.55;19.15;;;;;;;;;;6211997;23;19997;-94
2024/04/07 06:55:35;;;;;;;18.80;17.13;;;;;;;;;;6228179;23;20008;-95
2024/04/07 06:58:01;;;;;;;19.45;17.92;;;;;;;;;;6194898;23;20019;-94
2024/04/07 07:00:28;;;;;;;16.45;15.35;;;;;;;;;;6193881;23;19989;-95
2024/04/07 07:02:54;;;;;;;14.43;13.38;;;;;;;;;;6171664;23;20507;-94
2024/04/07 07:05:23;;;;;;;16.45;15.35;;;;;;;;;;6197991;23;20015;-95
2024/04/07 07:07:49;;;;;;;15.07;13.98;;;;;;;;;;6192032;23;20425;-92
2024/04/07 07:10:15;;;;;;;15.75;14.55;;;;;;;;;;6191513;23;20012;-93
2024/04/07 07:12:42;;;;;;;15.05;13.95;;;;;;;;;;6191204;23;20004;-93
2024/04/07 07:15:08;;;;;;;17.23;15.88;;;;;;;;;;6191407;23;20418;-93
2024/04/07 07:17:40;;;;;;;14.45;13.35;;;;;;;;;;6197307;23;20016;-96
2024/04/07 07:20:06;;;;;;;10.30;9.50;;;;;;;;;;6162042;23;20021;-92
2024/04/07 07:22:33;;;;;;;18.00;16.63;;;;;;;;;;6187727;23;20047;-92
2024/04/07 07:24:59;;;;;;;16.55;15.32;;;;;;;;;;6164054;23;20627;-93
2024/04/07 07:27:25;;;;;;;16.27;15.18;;;;;;;;;;6161042;23;20005;-94
2024/04/07 07:29:51;;;;;;;17.45;15.88;;;;;;;;;;6164997;23;20535;-91
2024/04/07 07:32:28;;;;;;;17.48;15.98;;;;;;;;;;6252620;22;20008;-95
2024/04/07 07:34:57;;;;;;;17.80;16.38;;;;;;;;;;6254792;22;19999;-94
2024/04/07 07:37:23;;;;;;;17.13;15.82;;;;;;;;;;6262179;22;20035;-95
2024/04/07 07:39:58;;;;;;;15.80;14.40;;;;;;;;;;6289431;22;20010;-94
2024/04/07 07:42:26;;;;;;;14.48;13.38;;;;;;;;;;6259079;22;20031;-94
2024/04/07 07:44:54;;;;;;;12.00;10.82;;;;;;;;;;6255505;22;20440;-94
2024/04/07 07:47:20;;;;;;;16.85;15.65;;;;;;;;;;6265477;22;20004;-91
2024/04/07 07:49:47;;;;;;;14.15;13.02;;;;;;;;;;6274761;22;20071;-91
2024/04/07 07:52:13;;;;;;;16.95;15.60;;;;;;;;;;6257811;22;20026;-90
2024/04/07 07:54:41;;;;;;;17.60;16.40;;;;;;;;;;6256556;22;20014;-91
2024/04/07 07:57:16;;;;;;;18.15;16.77;;;;;;;;;;6253948;22;20016;-92
2024/04/07 07:59:57;;;;;;;17.67;16.25;;;;;;;;;;6255286;22;20054;-91
2024/04/07 08:02:39;;;;;;;20.17;18.77;;;;;;;;;;6253243;22;20449;-92
2024/04/07 08:05:06;;;;;;;9.75;8.82;;;;;;;;;;6252923;22;20004;-91
2024/04/07 08:07:38;;;;;;;17.50;16.20;;;;;;;;;;6278305;22;20057;-91
2024/04/07 08:10:07;;;;;;;15.82;14.52;;;;;;;;;;6283027;22;20402;-91
2024/04/07 08:15:43;;;;;;;13.05;12.05;;;;;;;;;;6196853;22;20007;-95
2024/04/07 08:18:37;;;;;;;;;;;;;;;;;;;;;
2024/04/07 08:21:28;;;;;;;16.00;14.70;;;;;;;;;;6283174;22;20019;-96
2024/04/07 08:23:59;;;;;;;15.43;14.32;;;;;;;;;;6289141;22;20000;-96
2024/04/07 08:26:47;;;;;;;19.20;17.90;;;;;;;;;;6295089;22;20003;-96
2024/04/07 08:42:14;;;;;;;16.38;15.18;;;;;;;;;;6297873;22;20049;-95
2024/04/07 08:44:54;;;;;;;15.07;13.88;;;;;;;;;;6290284;22;20004;-95
2024/04/07 08:47:23;;;;;;;14.90;13.70;;;;;;;;;;6277020;22;20003;-96
2024/04/07 08:49:52;;;;;;;16.70;15.35;;;;;;;;;;6287843;22;20358;-95
2024/04/07 08:52:19;;;;;;;17.15;15.75;;;;;;;;;;6287815;22;20363;-95
2024/04/07 08:54:46;;;;;;;14.55;13.48;;;;;;;;;;6286191;22;20155;-95
2024/04/07 09:31:44;;;;;;;19.77;18.25;;;;;;;;;;6296115;22;20019;-93
2024/04/07 09:34:25;;;;;;;14.65;13.43;;;;;;;;;;6293598;22;20015;-96
2024/04/07 10:34:18;;;;;;;22.73;21.08;;;;;;;;;;6313667;22;20010;-95
2024/04/07 10:39:35;;;;;;;23.48;21.90;;;;;;;;;;6322224;22;20034;-96
2024/04/07 10:42:14;;;;;;;22.33;20.73;;;;;;;;;;6301100;22;20011;-93
2024/04/07 10:49:51;;;;;;;17.63;16.40;;;;;;;;;;6329091;22;20057;-94
2024/04/07 10:52:19;;;;;;;22.40;20.88;;;;;;;;;;6293842;22;19999;-95
2024/04/07 10:54:56;;;;;;;18.77;17.55;;;;;;;;;;6297265;22;20035;-96
2024/04/07 10:57:25;;;;;;;16.92;15.70;;;;;;;;;;6300212;22;20391;-95
2024/04/07 11:03:22;;;;;;;18.25;16.95;;;;;;;;;;6324834;22;20459;-96
2024/04/07 11:05:49;;;;;;;22.88;21.25;;;;;;;;;;6287361;22;20090;-94
2024/04/07 11:08:15;;;;;;;19.63;18.15;;;;;;;;;;6284241;22;20007;-95
2024/04/07 11:10:42;;;;;;;23.25;21.65;;;;;;;;;;6283728;22;20004;-95
2024/04/07 11:13:08;;;;;;;22.88;21.25;;;;;;;;;;6285619;22;20003;-95
2024/04/07 11:15:34;;;;;;;17.38;16.13;;;;;;;;;;6283819;22;20030;-93
2024/04/07 11:18:01;;;;;;;21.60;20.10;;;;;;;;;;6284050;22;20027;-96
2024/04/07 11:20:28;;;;;;;18.58;17.23;;;;;;;;;;6284819;22;20033;-95
2024/04/07 11:22:54;;;;;;;18.70;17.23;;;;;;;;;;6290918;22;20007;-93
2024/04/07 11:25:20;;;;;;;19.27;17.77;;;;;;;;;;6286758;22;20005;-95
2024/04/07 11:27:47;;;;;;;23.27;21.40;;;;;;;;;;6284105;22;19999;-94
2024/04/07 11:30:13;;;;;;;24.63;22.83;;;;;;;;;;6283572;22;20552;-94
2024/04/07 11:32:39;;;;;;;20.45;19.10;;;;;;;;;;6284239;22;19999;-93
2024/04/07 11:35:36;;;;;;;21.60;20.10;;;;;;;;;;6285988;22;20053;-92
2024/04/07 11:38:03;;;;;;;20.17;18.73;;;;;;;;;;6280679;22;20011;-95
2024/04/07 11:40:30;;;;;;;21.52;19.85;;;;;;;;;;6282801;22;20003;-93
2024/04/07 11:42:57;;;;;;;19.88;18.42;;;;;;;;;;6283039;22;20429;-93
2024/04/07 11:45:25;;;;;;;20.40;18.90;;;;;;;;;;6283571;22;20440;-94
2024/04/07 11:47:51;;;;;;;15.43;14.32;;;;;;;;;;6294893;22;20010;-94
2024/04/07 11:50:17;;;;;;;22.52;21.02;;;;;;;;;;6303742;22;20034;-94
2024/04/07 11:52:44;;;;;;;22.42;20.50;;;;;;;;;;6288599;22;19999;-94
2024/04/07 11:55:10;;;;;;;17.77;16.50;;;;;;;;;;6282870;22;20068;-95
2024/04/07 11:57:36;;;;;;;20.38;19.05;;;;;;;;;;6283159;22;20015;-95
2024/04/07 12:00:12;;;;;;;23.83;22.17;;;;;;;;;;6310627;22;20011;-94
2024/04/07 12:02:38;;;;;;;20.15;18.63;;;;;;;;;;6284503;22;20040;-96
2024/04/07 12:05:10;;;;;;;20.73;19.33;;;;;;;;;;6285177;22;20003;-96
2024/04/07 12:07:37;;;;;;;15.27;14.18;;;;;;;;;;6285747;22;20086;-95
2024/04/07 12:10:04;;;;;;;20.83;19.45;;;;;;;;;;6286600;22;20019;-95
2024/04/07 12:12:30;;;;;;;19.45;18.02;;;;;;;;;;6289822;22;20011;-94
2024/04/07 12:14:57;;;;;;;18.00;16.70;;;;;;;;;;6284728;22;20003;-96
2024/04/07 12:17:23;;;;;;;30.38;27.35;;;;;;;;;;6287325;22;20011;-91
2024/04/07 12:19:49;;;;;;;21.15;19.80;;;;;;;;;;6284227;22;20008;-93
2024/04/07 12:22:16;;;;;;;19.50;18.10;;;;;;;;;;6282532;22;19997;-92
2024/04/07 12:24:43;;;;;;;20.15;18.70;;;;;;;;;;6282276;22;20026;-93
2024/04/07 12:27:09;;;;;;;20.40;19.10;;;;;;;;;;6282299;22;20539;-91
2024/04/07 12:29:35;;;;;;;20.75;19.42;;;;;;;;;;6282198;22;20007;-93
2024/04/07 12:32:01;;;;;;;18.15;16.95;;;;;;;;;;6282655;22;20433;-93
2024/04/07 12:34:27;;;;;;;20.20;18.80;;;;;;;;;;6281988;22;20035;-94
2024/04/07 12:36:53;;;;;;;20.27;18.77;;;;;;;;;;6282193;22;20011;-93
2024/04/07 13:28:26;;;;;;;;;;;;;;;;;;;;;
2024/04/07 13:33:48;;;;;;;19.23;17.88;;;;;;;;;;6303001;22;20074;-93
2024/04/07 13:36:15;;;;;;;19.73;18.05;;;;;;;;;;6295199;22;20011;-96
2024/04/07 13:41:54;;;;;;;20.60;19.20;;;;;;;;;;6315876;22;20548;-95
2024/04/07 13:44:20;;;;;;;20.27;18.90;;;;;;;;;;6283237;22;20406;-95
2024/04/07 13:46:49;;;;;;;18.90;17.60;;;;;;;;;;6282922;22;20007;-95
2024/04/07 13:49:16;;;;;;;18.80;17.40;;;;;;;;;;6284648;22;20031;-95
2024/04/07 13:51:42;;;;;;;22.45;20.95;;;;;;;;;;6289394;22;20014;-96
2024/04/07 13:54:08;;;;;;;20.80;19.38;;;;;;;;;;6285707;22;19999;-94
2024/04/07 13:56:34;;;;;;;14.75;13.55;;;;;;;;;;6284545;22;20012;-95
2024/04/07 13:59:00;;;;;;;17.50;16.25;;;;;;;;;;6282815;22;20007;-94
2024/04/07 14:01:28;;;;;;;19.33;17.95;;;;;;;;;;6310106;22;19999;-95
2024/04/07 14:03:54;;;;;;;21.13;19.73;;;;;;;;;;6285810;22;20018;-94
2024/04/07 14:06:21;;;;;;;21.27;19.90;;;;;;;;;;6312081;22;20556;-93
2024/04/07 14:08:49;;;;;;;21.77;20.15;;;;;;;;;;6284804;22;20038;-93
2024/04/07 14:13:59;;;;;;;21.48;19.90;;;;;;;;;;6308421;22;20019;-93
2024/04/07 14:19:54;;;;;;;20.33;18.92;;;;;;;;;;6249047;23;20423;-93
2024/04/07 14:22:21;;;;;;;19.27;17.77;;;;;;;;;;6299968;22;20035;-95
2024/04/07 14:24:47;;;;;;;20.75;19.30;;;;;;;;;;6283897;22;20007;-92
2024/04/07 14:27:13;;;;;;;25.08;23.25;;;;;;;;;;6283983;22;19999;-91
2024/04/07 14:29:43;;;;;;;19.40;18.20;;;;;;;;;;6284326;22;20009;-94
2024/04/07 14:32:09;;;;;;;21.95;20.63;;;;;;;;;;6290110;22;20007;-93
2024/04/07 14:34:36;;;;;;;20.83;19.52;;;;;;;;;;6286657;22;20003;-94
2024/04/07 14:37:02;;;;;;;21.50;20.00;;;;;;;;;;6288926;22;20030;-94
2024/04/07 14:39:35;;;;;;;17.83;16.77;;;;;;;;;;6288800;22;20003;-94
2024/04/07 14:42:01;;;;;;;23.15;21.58;;;;;;;;;;6288149;22;20003;-93
2024/04/07 14:44:27;;;;;;;22.75;21.08;;;;;;;;;;6289714;22;20003;-94
2024/04/07 14:46:53;;;;;;;24.15;22.55;;;;;;;;;;6292285;22;20069;-96
2024/04/07 14:49:22;;;;;;;22.73;21.33;;;;;;;;;;6316472;22;20033;-94
2024/04/07 14:51:49;;;;;;;18.55;17.25;;;;;;;;;;6288158;22;20082;-94
2024/04/07 18:56:48;;;;;;;38.10;34.17;;;;;;;;;;6282655;22;20026;-92
2024/04/07 18:59:42;;;;;;;37.13;33.42;;;;;;;;;;6218357;23;20091;-93
2024/04/07 19:02:25;;;;;;;34.78;29.85;;;;;;;;;;6216661;23;20004;-94
2024/04/07 19:07:59;;;;;;;32.40;22.20;;;;;;;;;;6292891;22;20021;-94
2024/04/07 19:13:51;;;;;;;;;;;;;;;;;;;;;
2024/04/07 19:16:02;;;;;;;31.40;18.88;;;;;;;;;;6306282;22;20007;-94
2024/04/07 19:24:25;;;;;;;46.70;42.22;;;;;;;;;;6335633;22;20073;-92
2024/04/07 19:26:58;;;;;;;25.70;17.40;;;;;;;;;;6303639;22;20003;-94
2024/04/07 19:32:35;;;;;;;26.75;15.20;;;;;;;;;;6312596;22;20042;-96
2024/04/07 19:35:07;;;;;;;23.73;15.20;;;;;;;;;;6282795;22;20006;-94
2024/04/07 19:37:43;;;;;;;23.58;17.25;;;;;;;;;;6296507;22;20485;-94
2024/04/07 19:42:48;;;;;;;14.65;11.40;;;;;;;;;;6281311;22;20030;-96
2024/04/07 19:45:14;;;;;;;15.73;14.10;;;;;;;;;;6259238;22;20318;-94
2024/04/07 19:47:40;;;;;;;13.75;12.38;;;;;;;;;;6257305;22;20000;-93
2024/04/07 19:50:07;;;;;;;12.35;11.23;;;;;;;;;;6253838;22;20008;-96
2024/04/07 19:52:33;;;;;;;13.43;11.02;;;;;;;;;;6253012;22;20000;-95
2024/04/07 19:55:01;;;;;;;12.52;11.05;;;;;;;;;;6252190;22;20090;-94
2024/04/07 19:57:28;;;;;;;12.82;11.45;;;;;;;;;;6252137;22;20016;-94
2024/04/07 19:59:54;;;;;;;14.75;13.25;;;;;;;;;;6251760;22;20000;-95
2024/04/07 20:02:20;;;;;;;10.77;9.65;;;;;;;;;;6253566;22;20008;-93
2024/04/07 20:04:46;;;;;;;15.77;13.35;;;;;;;;;;6270386;22;20000;-95
2024/04/07 20:07:12;;;;;;;20.42;18.55;;;;;;;;;;6253577;22;20003;-95
2024/04/07 20:09:41;;;;;;;14.13;12.20;;;;;;;;;;6254423;22;20000;-96
2024/04/07 20:12:07;;;;;;;15.40;13.85;;;;;;;;;;6256443;22;20010;-95
2024/04/07 20:14:36;;;;;;;10.43;8.52;;;;;;;;;;6293478;22;20018;-96
2024/04/07 20:17:02;;;;;;;11.13;9.95;;;;;;;;;;6256114;22;20035;-96
2024/04/07 20:19:28;;;;;;;11.60;10.48;;;;;;;;;;6255066;22;20000;-95
2024/04/07 20:21:56;;;;;;;12.30;11.18;;;;;;;;;;6259255;22;20087;-95
2024/04/07 20:24:53;;;;;;;;;;;;;;;;;;;;;
2024/04/07 20:27:40;;;;;;;12.80;10.02;;;;;;;;;;6288919;22;20004;-96
2024/04/07 20:30:07;;;;;;;9.85;8.85;;;;;;;;;;6252425;22;20082;-95
2024/04/07 20:32:33;;;;;;;12.00;10.80;;;;;;;;;;6257100;22;20008;-96
2024/04/07 20:35:26;;;;;;;14.60;10.93;;;;;;;;;;6288421;22;20004;-96
2024/04/07 20:37:54;;;;;;;10.95;9.20;;;;;;;;;;6267884;22;20035;-96
2024/04/07 20:40:23;;;;;;;19.40;17.85;;;;;;;;;;6258638;22;20019;-94
2024/04/07 20:46:09;;;;;;;9.32;7.68;;;;;;;;;;6270956;22;20034;-96
2024/04/07 20:48:36;;;;;;;9.80;8.80;;;;;;;;;;6266359;23;20005;-96
2024/04/07 20:51:04;;;;;;;11.00;9.20;;;;;;;;;;6263185;23;20004;-96
2024/04/07 20:53:30;;;;;;;9.23;8.20;;;;;;;;;;6260238;22;20066;-96
2024/04/07 20:55:59;;;;;;;13.65;9.70;;;;;;;;;;6262541;22;20011;-96
2024/04/07 20:58:26;;;;;;;12.52;10.25;;;;;;;;;;6269122;23;20034;-96
2024/04/07 21:00:57;;;;;;;20.48;14.85;;;;;;;;;;6293502;22;20016;-96
2024/04/07 21:03:50;;;;;;;;;;;;;;;;;;;;;
2024/04/07 21:06:49;;;;;;;11.68;9.30;;;;;;;;;;6271526;22;19999;-96
2024/04/07 21:09:23;;;;;;;9.57;8.57;;;;;;;;;;6245200;22;20004;-96
2024/04/07 21:12:11;;;;;;;11.27;10.02;;;;;;;;;;6269357;23;20015;-96
2024/04/07 21:14:46;;;;;;;14.10;8.88;;;;;;;;;;6272503;22;19995;-96
2024/04/07 21:17:34;;;;;;;9.10;7.70;;;;;;;;;;6269545;23;20015;-96
2024/04/07 21:20:41;;;;;;;;;;;;;;;;;;;;;
2024/04/07 21:23:42;;;;;;;;;;;;;;;;;;;;;
2024/04/07 21:26:16;;;;;;;13.38;10.52;;;;;;;;;;6134782;23;20021;-96
2024/04/07 21:28:49;;;;;;;9.70;8.63;;;;;;;;;;6122565;23;20005;-95
2024/04/07 22:01:30;;;;;;;9.98;7.18;;;;;;;;;;6324779;22;20046;-95
2024/04/07 22:04:03;;;;;;;15.13;13.82;;;;;;;;;;6322043;22;20033;-96
2024/04/07 22:06:35;;;;;;;12.27;10.43;;;;;;;;;;6322559;22;20324;-96
2024/04/07 22:09:07;;;;;;;9.82;8.75;;;;;;;;;;6298186;22;20008;-96
2024/04/07 22:11:40;;;;;;;13.00;11.57;;;;;;;;;;6299483;22;20027;-96
2024/04/07 22:14:09;;;;;;;11.68;7.72;;;;;;;;;;6300093;22;20003;-95
2024/04/07 22:16:40;;;;;;;13.95;12.77;;;;;;;;;;6309032;22;20010;-96
2024/04/07 22:21:51;;;;;;;9.80;8.15;;;;;;;;;;6332612;22;20020;-96
2024/04/07 22:24:17;;;;;;;13.05;9.57;;;;;;;;;;6272477;22;20008;-95
2024/04/07 22:26:43;;;;;;;10.90;9.80;;;;;;;;;;6299786;22;20063;-95
2024/04/07 22:29:11;;;;;;;10.75;9.48;;;;;;;;;;6314275;22;20006;-95
2024/04/07 22:31:38;;;;;;;11.52;9.55;;;;;;;;;;6316567;22;20007;-94
2024/04/07 22:34:04;;;;;;;11.20;10.02;;;;;;;;;;6287361;22;20003;-95
2024/04/07 22:36:31;;;;;;;9.85;8.05;;;;;;;;;;6287452;22;20027;-94
2024/04/07 22:38:58;;;;;;;12.15;9.60;;;;;;;;;;6287210;22;20007;-95
2024/04/07 22:41:24;;;;;;;9.30;8.30;;;;;;;;;;6286571;22;19999;-95
2024/04/07 22:43:50;;;;;;;9.85;7.70;;;;;;;;;;6285179;22;20000;-95